Time,TemperatureF,DewpointF,PressureIn,WindDirection,WindDirectionDegrees,WindSpeedMPH,WindSpeedGustMPH,Humidity,HourlyPrecipIn,Conditions,Clouds,dailyrainin,SolarRadiationWatts/m^2,SoftwareType,DateUTC
2013-07-22 00:04:00,68.0,51.7,30.09,SE,137,4.6,6.9,56,0.00,FEW,,0.00,0.0,WeatherDisplay:10.37,2013-07-21 22:04:00,
2013-07-22 00:09:00,67.9,51.6,30.09,SE,130,1.6,4.0,56,0.00,FEW,,0.00,0.0,WeatherDisplay:10.37,2013-07-21 22:09:00,
2013-07-22 00:14:00,67.8,51.5,30.09,East,100,3.4,7.0,56,0.00,FEW,,0.00,0.0,WeatherDisplay:10.37,2013-07-21 22:14:00,
2013-07-22 00:19:00,67.7,51.4,30.09,SE,129,2.4,8.1,56,0.00,FEW,,0.00,0.0,WeatherDisplay:10.37,2013-07-21 22:19:00,
2013-07-22 00:24:00,67.5,51.7,30.09,South,180,2.5,6.0,57,0.00,FEW,,0.00,0.0,WeatherDisplay:10.37,2013-07-21 22:24:00,
2013-07-22 00:29:00,67.4,51.6,30.09,ESE,114,0.9,3.0,57,0.00,FEW,,0.00,0.0,WeatherDisplay:10.37,2013-07-21 22:29:00,
2013-07-22 00:34:00,67.3,51.5,30.09,ESE,118,0.7,3.5,57,0.00,FEW,,0.00,0.0,WeatherDisplay:10.37,2013-07-21 22:34:00,
2013-07-22 00:39:00,67.1,51.4,30.09,SE,135,0.2,4.6,57,0.00,FEW,,0.00,0.0,WeatherDisplay:10.37,2013-07-21 22:39:00,
2013-07-22 00:44:00,67.0,51.3,30.09,SSE,163,0.1,3.5,57,0.00,FEW,,0.00,0.0,WeatherDisplay:10.37,2013-07-21 22:44:00,
2013-07-22 00:49:00,66.9,51.6,30.09,SE,140,0.2,4.6,58,0.00,FEW,,0.00,0.0,WeatherDisplay:10.37,2013-07-21 22:49:00,
2013-07-22 00:54:00,66.7,51.5,30.09,SE,140,0.0,2.3,58,0.00,FEW,,0.00,0.0,WeatherDisplay:10.37,2013-07-21 22:54:00,
2013-07-22 00:59:00,66.5,51.3,30.09,SE,140,0.0,0.0,58,0.00,FEW,,0.00,0.0,WeatherDisplay:10.37,2013-07-21 22:59:00,
2013-07-22 01:04:00,66.3,51.5,30.09,SE,141,1.0,2.0,59,0.00,FEW,,0.00,0.0,WeatherDisplay:10.37,2013-07-21 23:04:00,
2013-07-22 01:10:00,66.2,51.4,30.09,SE,140,0.0,2.0,59,0.00,FEW,,0.00,0.0,WeatherDisplay:10.37,2013-07-21 23:10:00,
2013-07-22 01:15:00,65.8,51.5,30.09,West,269,0.0,1.2,60,0.00,FEW,,0.00,0.0,WeatherDisplay:10.37,2013-07-21 23:15:00,
2013-07-22 01:20:00,65.5,51.2,30.09,West,269,0.0,1.2,60,0.00,FEW,,0.00,0.0,WeatherDisplay:10.37,2013-07-21 23:20:00,
2013-07-22 01:25:00,65.2,51.4,30.09,West,269,0.0,0.0,61,0.00,FEW,,0.00,0.0,WeatherDisplay:10.37,2013-07-21 23:25:00,
2013-07-22 01:30:00,64.9,51.6,30.09,West,269,0.0,2.3,62,0.00,FEW,,0.00,0.0,WeatherDisplay:10.37,2013-07-21 23:30:00,
2013-07-22 01:35:00,64.5,51.2,30.09,West,269,0.4,2.0,62,0.00,FEW,,0.00,0.0,WeatherDisplay:10.37,2013-07-21 23:35:00,
2013-07-22 01:41:00,64.1,51.2,30.09,WNW,296,1.9,3.5,63,0.00,FEW,,0.00,0.0,WeatherDisplay:10.37,2013-07-21 23:41:00,
2013-07-22 01:46:00,63.7,51.3,30.09,NE,44,0.0,2.3,64,0.00,FEW,,0.00,0.0,WeatherDisplay:10.37,2013-07-21 23:46:00,
2013-07-22 01:51:00,63.4,51.0,30.09,NE,44,0.0,0.0,64,0.00,FEW,,0.00,0.0,WeatherDisplay:10.37,2013-07-21 23:51:00,
2013-07-22 01:56:00,63.1,51.1,30.09,NE,44,0.2,1.2,65,0.00,FEW,,0.00,0.0,WeatherDisplay:10.37,2013-07-21 23:56:00,
2013-07-22 02:01:00,62.8,51.3,30.09,NE,44,0.0,0.0,66,0.00,FEW,,0.00,0.0,WeatherDisplay:10.37,2013-07-22 00:01:00,
2013-07-22 02:06:00,62.5,51.0,30.09,NE,44,0.0,1.2,66,0.00,FEW,,0.00,0.0,WeatherDisplay:10.37,2013-07-22 00:06:00,
2013-07-22 02:11:00,62.3,51.2,30.09,NE,44,0.0,0.0,67,0.00,FEW,,0.00,0.0,WeatherDisplay:10.37,2013-07-22 00:11:00,
2013-07-22 02:16:00,62.1,51.0,30.09,NE,44,0.1,1.2,67,0.00,FEW,,0.00,0.0,WeatherDisplay:10.37,2013-07-22 00:16:00,
2013-07-22 02:21:00,61.9,51.2,30.09,NE,44,0.0,0.0,68,0.00,FEW,,0.00,0.0,WeatherDisplay:10.37,2013-07-22 00:21:00,
2013-07-22 02:26:00,61.6,50.9,30.09,NE,44,0.0,0.0,68,0.00,FEW,,0.00,0.0,WeatherDisplay:10.37,2013-07-22 00:26:00,
2013-07-22 02:31:00,61.3,51.0,30.08,NE,44,0.0,0.0,69,0.00,FEW,,0.00,0.0,WeatherDisplay:10.37,2013-07-22 00:31:00,
2013-07-22 02:36:00,61.0,51.1,30.08,NE,44,0.0,0.0,70,0.00,FEW,,0.00,0.0,WeatherDisplay:10.37,2013-07-22 00:36:00,
2013-07-22 02:41:00,60.7,50.9,30.08,NE,44,0.0,0.0,70,0.00,FEW,,0.00,0.0,WeatherDisplay:10.37,2013-07-22 00:41:00,
2013-07-22 02:46:00,60.3,50.9,30.08,NE,44,0.0,0.0,71,0.00,FEW,,0.00,0.0,WeatherDisplay:10.37,2013-07-22 00:46:00,
2013-07-22 02:51:00,60.0,50.6,30.08,NE,44,0.0,0.0,71,0.00,FEW,,0.00,0.0,WeatherDisplay:10.37,2013-07-22 00:51:00,
2013-07-22 02:56:00,59.6,50.6,30.08,NE,44,0.0,0.0,72,0.00,FEW,,0.00,0.0,WeatherDisplay:10.37,2013-07-22 00:56:00,
2013-07-22 03:01:00,59.3,50.6,30.08,NE,44,0.0,0.0,73,0.00,FEW,,0.00,0.0,WeatherDisplay:10.37,2013-07-22 01:01:00,
2013-07-22 03:06:00,59.0,50.7,30.08,NE,44,0.0,0.0,74,0.00,FEW,,0.00,0.0,WeatherDisplay:10.37,2013-07-22 01:06:00,
2013-07-22 03:11:00,58.7,50.4,30.08,NE,44,0.0,0.0,74,0.00,FEW,,0.00,0.0,WeatherDisplay:10.37,2013-07-22 01:11:00,
2013-07-22 03:16:00,58.5,50.6,30.08,NE,44,0.0,0.0,75,0.00,FEW,,0.00,0.0,WeatherDisplay:10.37,2013-07-22 01:16:00,
2013-07-22 03:21:00,58.2,50.3,30.08,NE,44,0.0,0.0,75,0.00,FEW,,0.00,0.0,WeatherDisplay:10.37,2013-07-22 01:21:00,
2013-07-22 03:26:00,58.0,50.5,30.08,NE,44,0.0,0.0,76,0.00,FEW,,0.00,0.0,WeatherDisplay:10.37,2013-07-22 01:26:00,
2013-07-22 03:31:00,57.8,50.3,30.08,NE,44,0.0,0.0,76,0.00,FEW,,0.00,0.0,WeatherDisplay:10.37,2013-07-22 01:31:00,
2013-07-22 03:35:00,57.7,50.2,30.08,NE,44,0.0,0.0,76,0.00,FEW,,0.00,0.0,WeatherDisplay:10.37,2013-07-22 01:35:00,
2013-07-22 03:40:00,57.5,50.3,30.07,NE,44,0.0,0.0,77,0.00,FEW,,0.00,0.0,WeatherDisplay:10.37,2013-07-22 01:40:00,
2013-07-22 03:45:00,57.2,50.1,30.07,NE,44,0.0,0.0,77,0.00,FEW,,0.00,0.0,WeatherDisplay:10.37,2013-07-22 01:45:00,
2013-07-22 03:50:00,57.1,50.3,30.07,NE,44,0.0,0.0,78,0.00,FEW,,0.00,0.0,WeatherDisplay:10.37,2013-07-22 01:50:00,
2013-07-22 03:55:00,56.9,50.1,30.07,NE,44,0.0,0.0,78,0.00,FEW,,0.00,0.0,WeatherDisplay:10.37,2013-07-22 01:55:00,
2013-07-22 04:00:00,56.7,50.3,30.07,NE,44,0.0,0.0,79,0.00,FEW,,0.00,0.0,WeatherDisplay:10.37,2013-07-22 02:00:00,
2013-07-22 04:05:00,56.5,50.1,30.07,NE,44,0.0,0.0,79,0.00,FEW,,0.00,0.0,WeatherDisplay:10.37,2013-07-22 02:05:00,
2013-07-22 04:10:00,56.3,49.9,30.07,NE,44,0.0,0.0,79,0.00,FEW,,0.00,0.0,WeatherDisplay:10.37,2013-07-22 02:10:00,
2013-07-22 04:15:00,56.1,50.0,30.07,NE,44,0.0,0.0,80,0.00,FEW,,0.00,0.0,WeatherDisplay:10.37,2013-07-22 02:15:00,
2013-07-22 04:20:00,55.9,49.8,30.07,NE,44,0.0,0.0,80,0.00,FEW,,0.00,0.0,WeatherDisplay:10.37,2013-07-22 02:20:00,
2013-07-22 04:25:00,55.7,49.6,30.07,NE,44,0.0,0.0,80,0.00,FEW,,0.00,0.0,WeatherDisplay:10.37,2013-07-22 02:25:00,
2013-07-22 04:30:00,55.5,49.4,30.07,NE,44,0.0,0.0,80,0.00,FEW,,0.00,0.0,WeatherDisplay:10.37,2013-07-22 02:30:00,
2013-07-22 04:35:00,55.3,49.6,30.07,NE,44,0.0,0.0,81,0.00,FEW,,0.00,0.0,WeatherDisplay:10.37,2013-07-22 02:35:00,
2013-07-22 04:40:00,55.1,49.4,30.07,NE,44,0.0,0.0,81,0.00,FEW,,0.00,0.0,WeatherDisplay:10.37,2013-07-22 02:40:00,
2013-07-22 04:45:00,54.9,49.2,30.07,NE,44,0.0,0.0,81,0.00,FEW,,0.00,0.0,WeatherDisplay:10.37,2013-07-22 02:45:00,
2013-07-22 04:50:00,54.7,49.0,30.07,NE,44,0.0,0.0,81,0.00,FEW,,0.00,0.0,WeatherDisplay:10.37,2013-07-22 02:50:00,
2013-07-22 04:55:00,54.5,49.1,30.07,NE,44,0.0,0.0,82,0.00,FEW,,0.00,0.0,WeatherDisplay:10.37,2013-07-22 02:55:00,
2013-07-22 05:00:00,54.4,49.0,30.07,NE,44,0.0,0.0,82,0.00,FEW,,0.00,0.0,WeatherDisplay:10.37,2013-07-22 03:00:00,
2013-07-22 05:05:00,54.2,48.8,30.07,NE,44,0.0,0.0,82,0.00,FEW,,0.00,0.0,WeatherDisplay:10.37,2013-07-22 03:05:00,
2013-07-22 05:10:00,54.1,49.1,30.07,NE,44,0.0,0.0,83,0.00,FEW,,0.00,5.0,WeatherDisplay:10.37,2013-07-22 03:10:00,
2013-07-22 05:15:00,54.1,49.1,30.07,NE,44,0.0,0.0,83,0.00,FEW,,0.00,5.0,WeatherDisplay:10.37,2013-07-22 03:15:00,
2013-07-22 05:20:00,54.0,49.0,30.07,NE,44,0.0,0.0,83,0.00,FEW,,0.00,7.0,WeatherDisplay:10.37,2013-07-22 03:20:00,
2013-07-22 05:25:00,53.8,49.1,30.07,NE,44,0.0,0.0,84,0.00,FEW,,0.00,11.0,WeatherDisplay:10.37,2013-07-22 03:25:00,
2013-07-22 05:30:00,53.8,49.1,30.07,NE,44,0.0,0.0,84,0.00,FEW,,0.00,12.0,WeatherDisplay:10.37,2013-07-22 03:30:00,
2013-07-22 05:35:00,53.7,49.0,30.07,NE,44,0.0,0.0,84,0.00,FEW,,0.00,12.0,WeatherDisplay:10.37,2013-07-22 03:35:00,
2013-07-22 05:40:00,53.6,48.9,30.07,NE,44,0.0,0.0,84,0.00,FEW,,0.00,14.0,WeatherDisplay:10.37,2013-07-22 03:40:00,
2013-07-22 05:45:00,53.6,48.9,30.07,NE,44,0.0,0.0,84,0.00,FEW,,0.00,16.0,WeatherDisplay:10.37,2013-07-22 03:45:00,
2013-07-22 05:50:00,53.6,49.2,30.07,NE,44,0.0,0.0,85,0.00,FEW,,0.00,37.0,WeatherDisplay:10.37,2013-07-22 03:50:00,
2013-07-22 05:55:00,53.6,49.2,30.07,NE,44,0.0,0.0,85,0.00,FEW,,0.00,44.0,WeatherDisplay:10.37,2013-07-22 03:55:00,
2013-07-22 06:00:00,53.6,49.2,30.07,NE,44,0.0,0.0,85,0.00,FEW,,0.00,51.0,WeatherDisplay:10.37,2013-07-22 04:00:00,
2013-07-22 06:01:00,53.6,49.2,30.07,NE,44,0.0,0.0,85,0.00,FEW,,0.00,51.0,WeatherDisplay:10.37,2013-07-22 04:01:00,
2013-07-22 06:02:00,53.6,49.2,30.07,NE,44,0.0,0.0,85,0.00,FEW,,0.00,53.0,WeatherDisplay:10.37,2013-07-22 04:02:00,
2013-07-22 06:04:00,53.7,49.6,30.07,NE,44,0.0,0.0,86,0.00,FEW,,0.00,54.0,WeatherDisplay:10.37,2013-07-22 04:04:00,
2013-07-22 06:06:00,53.7,49.6,30.07,NE,44,0.0,0.0,86,0.00,SCT,,0.00,56.0,WeatherDisplay:10.37,2013-07-22 04:06:00,
2013-07-22 06:07:00,53.7,49.6,30.07,NE,44,0.0,0.0,86,0.00,SCT,,0.00,58.0,WeatherDisplay:10.37,2013-07-22 04:07:00,
2013-07-22 06:12:00,53.9,49.8,30.07,NE,44,0.0,0.0,86,0.00,SCT,,0.00,69.0,WeatherDisplay:10.37,2013-07-22 04:12:00,
2013-07-22 06:17:00,54.1,50.3,30.07,NE,44,0.0,0.0,87,0.00,SCT,,0.00,81.0,WeatherDisplay:10.37,2013-07-22 04:17:00,
2013-07-22 06:22:00,54.4,50.6,30.07,NE,44,0.0,0.0,87,0.00,SCT,,0.00,91.0,WeatherDisplay:10.37,2013-07-22 04:22:00,
2013-07-22 06:27:00,54.7,50.9,30.07,NE,44,0.0,0.0,87,0.00,SCT,,0.00,98.0,WeatherDisplay:10.37,2013-07-22 04:27:00,
2013-07-22 06:32:00,55.2,51.4,30.07,NE,44,0.0,0.0,87,0.00,SCT,,0.00,113.0,WeatherDisplay:10.37,2013-07-22 04:32:00,
2013-07-22 06:37:00,55.8,52.0,30.07,NE,44,0.0,0.0,87,0.00,FEW,,0.00,125.0,WeatherDisplay:10.37,2013-07-22 04:37:00,
2013-07-22 06:42:00,56.4,52.3,30.07,NE,44,0.0,1.2,86,0.00,FEW,,0.00,135.0,WeatherDisplay:10.37,2013-07-22 04:42:00,
2013-07-22 06:47:00,57.0,52.5,30.07,NE,44,0.0,1.0,85,0.00,FEW,,0.00,146.0,WeatherDisplay:10.37,2013-07-22 04:47:00,
2013-07-22 06:52:00,57.6,52.8,30.07,NE,44,0.0,0.0,84,0.00,FEW,,0.00,158.0,WeatherDisplay:10.37,2013-07-22 04:52:00,
2013-07-22 06:57:00,58.5,53.0,30.07,NE,44,0.0,0.0,82,0.00,FEW,,0.00,167.0,WeatherDisplay:10.37,2013-07-22 04:57:00,
2013-07-22 07:02:00,59.4,53.6,30.07,NE,44,0.0,0.0,81,0.00,FEW,,0.00,178.0,WeatherDisplay:10.37,2013-07-22 05:02:00,
2013-07-22 07:07:00,60.1,54.2,30.07,NE,44,0.0,0.0,81,0.00,FEW,,0.00,190.0,WeatherDisplay:10.37,2013-07-22 05:07:00,
2013-07-22 07:12:00,60.9,54.3,30.07,NE,44,0.0,0.0,79,0.00,FEW,,0.00,200.0,WeatherDisplay:10.37,2013-07-22 05:12:00,
2013-07-22 07:17:00,61.8,54.2,30.07,NE,44,0.0,0.0,76,0.00,FEW,,0.00,213.0,WeatherDisplay:10.37,2013-07-22 05:17:00,
2013-07-22 07:22:00,62.5,55.2,30.07,NE,44,0.0,0.0,77,0.00,FEW,,0.00,225.0,WeatherDisplay:10.37,2013-07-22 05:22:00,
2013-07-22 07:27:00,63.2,55.1,30.07,NE,44,0.0,0.0,75,0.00,CLR,,0.00,237.0,WeatherDisplay:10.37,2013-07-22 05:27:00,
2013-07-22 07:32:00,63.9,55.4,30.07,NE,44,0.0,0.0,74,0.00,CLR,,0.00,246.0,WeatherDisplay:10.37,2013-07-22 05:32:00,
2013-07-22 07:37:00,64.7,54.3,30.06,NE,44,0.1,1.2,69,0.00,CLR,,0.00,258.0,WeatherDisplay:10.37,2013-07-22 05:37:00,
2013-07-22 07:42:00,65.4,54.2,30.06,NE,44,0.1,1.0,67,0.00,CLR,,0.00,271.0,WeatherDisplay:10.37,2013-07-22 05:42:00,
2013-07-22 07:47:00,66.0,54.7,30.07,NE,44,0.3,1.2,67,0.00,CLR,,0.00,283.0,WeatherDisplay:10.37,2013-07-22 05:47:00,
2013-07-22 07:52:00,66.6,54.5,30.06,NE,44,0.0,1.2,65,0.00,CLR,,0.00,295.0,WeatherDisplay:10.37,2013-07-22 05:52:00,
2013-07-22 07:57:00,67.1,54.1,30.06,NE,44,0.3,1.2,63,0.00,CLR,,0.00,308.0,WeatherDisplay:10.37,2013-07-22 05:57:00,
2013-07-22 08:02:00,67.4,53.9,30.06,NE,43,0.1,2.3,62,0.00,CLR,,0.00,318.0,WeatherDisplay:10.37,2013-07-22 06:02:00,
2013-07-22 08:07:00,68.0,54.9,30.06,NE,43,0.1,1.0,63,0.00,CLR,,0.00,330.0,WeatherDisplay:10.37,2013-07-22 06:07:00,
2013-07-22 08:12:00,68.5,55.8,30.07,NE,43,0.1,1.2,64,0.00,CLR,,0.00,341.0,WeatherDisplay:10.37,2013-07-22 06:12:00,
2013-07-22 08:17:00,68.9,54.9,30.07,North,360,0.6,3.5,61,0.00,CLR,,0.00,353.0,WeatherDisplay:10.37,2013-07-22 06:17:00,
2013-07-22 08:22:00,69.1,54.6,30.06,NNE,13,0.6,3.5,60,0.00,CLR,,0.00,366.0,WeatherDisplay:10.37,2013-07-22 06:22:00,
2013-07-22 08:27:00,69.2,55.2,30.06,SW,232,0.9,3.5,61,0.00,CLR,,0.00,378.0,WeatherDisplay:10.37,2013-07-22 06:27:00,
2013-07-22 08:32:00,69.6,55.6,30.06,North,355,0.2,1.2,61,0.00,CLR,,0.00,388.0,WeatherDisplay:10.37,2013-07-22 06:32:00,
2013-07-22 08:37:00,70.2,54.7,30.07,North,355,0.9,2.3,58,0.00,CLR,,0.00,401.0,WeatherDisplay:10.37,2013-07-22 06:37:00,
2013-07-22 08:42:00,70.3,54.8,30.06,North,355,0.1,3.5,58,0.00,CLR,,0.00,411.0,WeatherDisplay:10.37,2013-07-22 06:42:00,
2013-07-22 08:47:00,70.4,55.4,30.06,NNW,327,0.0,0.0,59,0.00,CLR,,0.00,422.0,WeatherDisplay:10.37,2013-07-22 06:47:00,
2013-07-22 08:52:00,70.6,55.6,30.07,NW,317,0.9,3.0,59,0.00,CLR,,0.00,434.0,WeatherDisplay:10.37,2013-07-22 06:52:00,
2013-07-22 08:57:00,71.1,54.6,30.06,NW,318,0.5,3.5,56,0.00,CLR,,0.00,443.0,WeatherDisplay:10.37,2013-07-22 06:57:00,
2013-07-22 09:02:00,71.4,54.4,30.06,ENE,63,1.2,3.5,55,0.00,CLR,,0.00,457.0,WeatherDisplay:10.37,2013-07-22 07:02:00,
2013-07-22 09:07:00,72.1,55.5,30.06,ENE,64,0.3,2.3,56,0.00,CLR,,0.00,469.0,WeatherDisplay:10.37,2013-07-22 07:07:00,
2013-07-22 09:12:00,72.4,55.3,30.06,ENE,62,0.1,1.2,55,0.00,CLR,,0.00,480.0,WeatherDisplay:10.37,2013-07-22 07:12:00,
2013-07-22 09:17:00,72.9,55.3,30.06,ENE,61,0.7,2.3,54,0.00,CLR,,0.00,490.0,WeatherDisplay:10.37,2013-07-22 07:17:00,
2013-07-22 09:22:00,73.4,54.2,30.06,ENE,63,0.4,2.0,51,0.00,CLR,,0.00,501.0,WeatherDisplay:10.37,2013-07-22 07:22:00,
2013-07-22 09:27:00,73.8,55.6,30.06,ENE,63,0.2,1.2,53,0.00,CLR,,0.00,512.0,WeatherDisplay:10.37,2013-07-22 07:27:00,
2013-07-22 09:32:00,73.9,54.6,30.06,WNW,294,2.5,4.0,51,0.00,CLR,,0.00,520.0,WeatherDisplay:10.37,2013-07-22 07:32:00,
2013-07-22 09:37:00,74.0,54.7,30.06,WNW,294,0.6,2.3,51,0.00,CLR,,0.00,529.0,WeatherDisplay:10.37,2013-07-22 07:37:00,
2013-07-22 09:42:00,74.3,53.9,30.06,WNW,293,0.5,3.5,49,0.00,CLR,,0.00,541.0,WeatherDisplay:10.37,2013-07-22 07:42:00,
2013-07-22 09:47:00,74.5,55.7,30.06,WNW,293,0.1,2.3,52,0.00,CLR,,0.00,552.0,WeatherDisplay:10.37,2013-07-22 07:47:00,
2013-07-22 09:52:00,74.6,54.2,30.06,WNW,293,0.8,2.0,49,0.00,CLR,,0.00,559.0,WeatherDisplay:10.37,2013-07-22 07:52:00,
2013-07-22 09:57:00,74.6,55.3,30.06,WNW,299,0.0,1.2,51,0.00,CLR,,0.00,568.0,WeatherDisplay:10.37,2013-07-22 07:57:00,
2013-07-22 10:02:00,75.4,54.3,30.05,WSW,257,1.2,3.0,48,0.00,CLR,,0.00,575.0,WeatherDisplay:10.37,2013-07-22 08:02:00,
2013-07-22 10:07:00,75.7,54.6,30.05,SSW,196,0.8,3.0,48,0.00,CLR,,0.00,589.0,WeatherDisplay:10.37,2013-07-22 08:07:00,
2013-07-22 10:12:00,75.9,56.5,30.05,SW,219,2.5,4.6,51,0.00,CLR,,0.00,596.0,WeatherDisplay:10.37,2013-07-22 08:12:00,
2013-07-22 10:17:00,76.2,56.2,30.05,SW,217,1.5,3.0,50,0.00,CLR,,0.00,605.0,WeatherDisplay:10.37,2013-07-22 08:17:00,
2013-07-22 10:22:00,77.1,55.3,30.05,South,185,0.1,1.2,47,0.00,CLR,,0.00,615.0,WeatherDisplay:10.37,2013-07-22 08:22:00,
2013-07-22 10:27:00,77.6,56.9,30.05,SSW,207,1.3,4.0,49,0.00,CLR,,0.00,622.0,WeatherDisplay:10.37,2013-07-22 08:27:00,
2013-07-22 10:32:00,78.2,55.7,30.05,South,186,2.2,7.0,46,0.00,CLR,,0.00,628.0,WeatherDisplay:10.37,2013-07-22 08:32:00,
2013-07-22 10:37:00,78.2,54.5,30.05,SW,225,1.4,8.1,44,0.00,CLR,,0.00,636.0,WeatherDisplay:10.37,2013-07-22 08:37:00,
2013-07-22 10:42:00,78.6,54.9,30.05,SSW,201,0.8,4.6,44,0.00,CLR,,0.00,645.0,WeatherDisplay:10.37,2013-07-22 08:42:00,
2013-07-22 10:47:00,78.6,54.9,30.05,SW,223,0.8,3.5,44,0.00,CLR,,0.00,650.0,WeatherDisplay:10.37,2013-07-22 08:47:00,
2013-07-22 10:52:00,78.5,56.0,30.05,West,261,4.3,10.4,46,0.00,CLR,,0.00,657.0,WeatherDisplay:10.37,2013-07-22 08:52:00,
2013-07-22 10:57:00,78.6,54.9,30.04,South,175,0.0,2.3,44,0.00,CLR,,0.00,664.0,WeatherDisplay:10.37,2013-07-22 08:57:00,
2013-07-22 11:02:00,78.5,54.8,30.04,SW,227,2.7,5.0,44,0.00,FEW,,0.00,671.0,WeatherDisplay:10.37,2013-07-22 09:02:00,
2013-07-22 11:07:00,79.0,53.9,30.04,WSW,257,3.6,5.0,42,0.00,FEW,,0.00,677.0,WeatherDisplay:10.37,2013-07-22 09:07:00,
2013-07-22 11:12:00,78.6,54.9,30.04,West,259,2.3,4.0,44,0.00,FEW,,0.00,684.0,WeatherDisplay:10.37,2013-07-22 09:12:00,
2013-07-22 11:17:00,78.8,53.8,30.04,WNW,303,2.7,6.9,42,0.00,FEW,,0.00,691.0,WeatherDisplay:10.37,2013-07-22 09:17:00,
2013-07-22 11:22:00,78.8,53.8,30.04,NW,318,3.4,5.8,42,0.00,FEW,,0.00,696.0,WeatherDisplay:10.37,2013-07-22 09:22:00,
2013-07-22 11:27:00,78.8,53.8,30.04,NW,319,3.6,6.0,42,0.00,FEW,,0.00,701.0,WeatherDisplay:10.37,2013-07-22 09:27:00,
2013-07-22 11:32:00,78.1,53.1,30.04,North,355,1.8,3.5,42,0.00,FEW,,0.00,707.0,WeatherDisplay:10.37,2013-07-22 09:32:00,
2013-07-22 11:37:00,77.8,53.5,30.04,North,355,0.6,2.0,43,0.00,FEW,,0.00,712.0,WeatherDisplay:10.37,2013-07-22 09:37:00,
2013-07-22 11:42:00,78.0,53.7,30.04,NNW,332,3.8,7.0,43,0.00,FEW,,0.00,717.0,WeatherDisplay:10.37,2013-07-22 09:42:00,
2013-07-22 11:47:00,78.4,52.7,30.04,West,273,4.1,7.0,41,0.00,FEW,,0.00,715.0,WeatherDisplay:10.37,2013-07-22 09:47:00,
2013-07-22 11:52:00,78.8,52.4,30.04,NW,321,2.2,4.0,40,0.00,FEW,,0.00,717.0,WeatherDisplay:10.37,2013-07-22 09:52:00,
2013-07-22 11:57:00,78.7,52.3,30.04,NW,315,2.6,4.0,40,0.00,FEW,,0.00,728.0,WeatherDisplay:10.37,2013-07-22 09:57:00,
2013-07-22 12:02:00,78.7,53.0,30.03,North,5,0.8,3.5,41,0.00,FEW,,0.00,728.0,WeatherDisplay:10.37,2013-07-22 10:02:00,
2013-07-22 12:07:00,79.1,54.0,30.03,SW,236,3.0,5.0,42,0.00,FEW,,0.00,735.0,WeatherDisplay:10.37,2013-07-22 10:07:00,
2013-07-22 12:12:00,79.9,56.0,30.03,WSW,248,0.2,1.2,44,0.00,FEW,,0.00,735.0,WeatherDisplay:10.37,2013-07-22 10:12:00,
2013-07-22 12:17:00,80.3,55.1,30.03,West,268,3.0,4.0,42,0.00,FEW,,0.00,737.0,WeatherDisplay:10.37,2013-07-22 10:17:00,
2013-07-22 12:22:00,80.7,52.7,30.03,SSW,211,2.9,5.8,38,0.00,CLR,,0.00,745.0,WeatherDisplay:10.37,2013-07-22 10:22:00,
2013-07-22 12:27:00,81.3,54.7,30.03,SW,226,3.2,8.1,40,0.00,CLR,,0.00,745.0,WeatherDisplay:10.37,2013-07-22 10:27:00,
2013-07-22 12:32:00,81.6,54.2,30.03,South,176,0.9,3.5,39,0.00,CLR,,0.00,745.0,WeatherDisplay:10.37,2013-07-22 10:32:00,
2013-07-22 12:38:00,81.5,53.4,30.03,West,277,0.4,3.5,38,0.00,CLR,,0.00,747.0,WeatherDisplay:10.37,2013-07-22 10:38:00,
2013-07-22 12:43:00,81.1,53.1,30.02,NNE,19,1.3,2.3,38,0.00,CLR,,0.00,749.0,WeatherDisplay:10.37,2013-07-22 10:43:00,
2013-07-22 12:48:00,80.7,53.4,30.02,North,355,1.8,3.5,39,0.00,CLR,,0.00,747.0,WeatherDisplay:10.37,2013-07-22 10:48:00,
2013-07-22 12:53:00,80.6,52.6,30.02,North,360,0.6,3.5,38,0.00,CLR,,0.00,749.0,WeatherDisplay:10.37,2013-07-22 10:53:00,
2013-07-22 12:58:00,80.4,55.2,30.02,NW,319,0.5,3.5,42,0.00,CLR,,0.00,749.0,WeatherDisplay:10.37,2013-07-22 10:58:00,
2013-07-22 13:03:00,80.9,54.3,30.02,North,355,3.6,8.0,40,0.00,CLR,,0.00,747.0,WeatherDisplay:10.37,2013-07-22 11:03:00,
2013-07-22 13:08:00,80.6,53.4,30.01,ENE,61,2.5,5.0,39,0.00,CLR,,0.00,745.0,WeatherDisplay:10.37,2013-07-22 11:08:00,
2013-07-22 13:13:00,80.5,52.6,30.01,NNW,332,3.2,5.0,38,0.00,CLR,,0.00,749.0,WeatherDisplay:10.37,2013-07-22 11:13:00,
2013-07-22 13:18:00,80.8,54.2,30.01,NW,308,3.4,7.0,40,0.00,CLR,,0.00,751.0,WeatherDisplay:10.37,2013-07-22 11:18:00,
2013-07-22 13:23:00,81.4,53.4,30.01,NW,316,1.4,2.3,38,0.00,CLR,,0.00,747.0,WeatherDisplay:10.37,2013-07-22 11:23:00,
2013-07-22 13:28:00,81.7,52.9,30.01,WNW,293,5.3,8.1,37,0.00,CLR,,0.00,738.0,WeatherDisplay:10.37,2013-07-22 11:28:00,
2013-07-22 13:33:00,81.3,53.3,30.00,WNW,295,0.8,3.0,38,0.00,CLR,,0.00,738.0,WeatherDisplay:10.37,2013-07-22 11:33:00,
2013-07-22 13:38:00,81.1,53.8,30.00,NNE,29,2.7,5.0,39,0.00,CLR,,0.00,740.0,WeatherDisplay:10.37,2013-07-22 11:38:00,
2013-07-22 13:43:00,81.0,54.4,30.00,NNW,331,3.4,8.0,40,0.00,CLR,,0.00,737.0,WeatherDisplay:10.37,2013-07-22 11:43:00,
2013-07-22 13:48:00,81.6,55.6,30.00,SW,231,6.4,9.0,41,0.00,CLR,,0.00,733.0,WeatherDisplay:10.37,2013-07-22 11:48:00,
2013-07-22 13:53:00,82.5,52.9,30.00,West,260,4.3,7.0,36,0.00,CLR,,0.00,737.0,WeatherDisplay:10.37,2013-07-22 11:53:00,
2013-07-22 13:58:00,82.9,55.4,30.00,SSW,209,1.9,4.6,39,0.00,CLR,,0.00,731.0,WeatherDisplay:10.37,2013-07-22 11:58:00,
2013-07-22 14:03:00,83.3,55.0,30.00,NW,315,3.3,8.1,38,0.00,CLR,,0.00,728.0,WeatherDisplay:10.37,2013-07-22 12:03:00,
2013-07-22 14:08:00,82.9,53.2,29.99,North,360,4.1,8.1,36,0.00,CLR,,0.00,717.0,WeatherDisplay:10.37,2013-07-22 12:08:00,
2013-07-22 14:13:00,82.9,55.4,29.99,SW,225,1.8,5.0,39,0.00,CLR,,0.00,719.0,WeatherDisplay:10.37,2013-07-22 12:13:00,
2013-07-22 14:18:00,83.3,53.6,29.99,NW,319,1.9,4.0,36,0.00,CLR,,0.00,715.0,WeatherDisplay:10.37,2013-07-22 12:18:00,
2013-07-22 14:24:00,83.1,55.6,29.99,SSE,166,0.7,3.0,39,0.00,CLR,,0.00,717.0,WeatherDisplay:10.37,2013-07-22 12:24:00,
2013-07-22 14:29:00,82.9,53.2,29.98,NNW,344,0.9,3.5,36,0.00,CLR,,0.00,714.0,WeatherDisplay:10.37,2013-07-22 12:29:00,
2013-07-22 14:34:00,82.9,54.7,29.98,WSW,245,3.9,6.0,38,0.00,CLR,,0.00,700.0,WeatherDisplay:10.37,2013-07-22 12:34:00,
2013-07-22 14:39:00,83.7,55.4,29.98,SW,220,3.6,9.2,38,0.00,CLR,,0.00,693.0,WeatherDisplay:10.37,2013-07-22 12:39:00,
2013-07-22 14:44:00,83.7,54.7,29.98,South,174,2.0,3.0,37,0.00,CLR,,0.00,686.0,WeatherDisplay:10.37,2013-07-22 12:44:00,
2013-07-22 14:49:00,83.7,54.7,29.98,SW,224,2.3,4.0,37,0.00,CLR,,0.00,677.0,WeatherDisplay:10.37,2013-07-22 12:49:00,
2013-07-22 14:54:00,84.0,54.9,29.98,NW,316,3.9,7.0,37,0.00,CLR,,0.00,664.0,WeatherDisplay:10.37,2013-07-22 12:54:00,
2013-07-22 14:59:00,84.3,54.4,29.97,WNW,288,0.7,5.8,36,0.00,CLR,,0.00,659.0,WeatherDisplay:10.37,2013-07-22 12:59:00,
2013-07-22 15:04:00,84.2,53.6,29.97,NNW,344,2.6,6.0,35,0.00,CLR,,0.00,659.0,WeatherDisplay:10.37,2013-07-22 13:04:00,
2013-07-22 15:09:00,84.0,54.2,29.97,NNW,336,2.9,5.0,36,0.00,CLR,,0.00,661.0,WeatherDisplay:10.37,2013-07-22 13:09:00,
2013-07-22 15:15:00,83.8,56.2,29.97,NW,323,1.0,5.0,39,0.00,CLR,,0.00,647.0,WeatherDisplay:10.37,2013-07-22 13:15:00,
2013-07-22 15:20:00,84.3,55.9,29.97,West,265,0.8,5.8,38,0.00,CLR,,0.00,656.0,WeatherDisplay:10.37,2013-07-22 13:20:00,
2013-07-22 15:25:00,84.4,54.5,29.97,West,271,1.0,4.0,36,0.00,CLR,,0.00,659.0,WeatherDisplay:10.37,2013-07-22 13:25:00,
2013-07-22 15:30:00,84.3,54.4,29.96,WSW,238,5.7,9.0,36,0.00,CLR,,0.00,628.0,WeatherDisplay:10.37,2013-07-22 13:30:00,
2013-07-22 15:35:00,84.5,56.1,29.96,WSW,244,3.0,7.0,38,0.00,CLR,,0.00,608.0,WeatherDisplay:10.37,2013-07-22 13:35:00,
2013-07-22 15:40:00,84.7,54.8,29.96,WSW,251,4.4,6.0,36,0.00,CLR,,0.00,610.0,WeatherDisplay:10.37,2013-07-22 13:40:00,
2013-07-22 15:45:00,84.8,55.6,29.96,SW,226,1.0,7.0,37,0.00,CLR,,0.00,603.0,WeatherDisplay:10.37,2013-07-22 13:45:00,
2013-07-22 15:50:00,84.7,54.0,29.95,SSW,202,0.3,2.0,35,0.00,CLR,,0.00,589.0,WeatherDisplay:10.37,2013-07-22 13:50:00,
2013-07-22 15:55:00,84.5,56.1,29.95,SW,230,3.0,12.0,38,0.00,CLR,,0.00,575.0,WeatherDisplay:10.37,2013-07-22 13:55:00,
2013-07-22 16:00:00,84.5,55.4,29.95,SSW,205,3.3,6.0,37,0.00,CLR,,0.00,573.0,WeatherDisplay:10.37,2013-07-22 14:00:00,
2013-07-22 16:05:00,84.5,55.4,29.95,SW,229,3.0,5.0,37,0.00,CLR,,0.00,571.0,WeatherDisplay:10.37,2013-07-22 14:05:00,
2013-07-22 16:10:00,84.5,54.6,29.95,WNW,292,2.9,8.1,36,0.00,CLR,,0.00,492.0,WeatherDisplay:10.37,2013-07-22 14:10:00,
2013-07-22 16:15:00,84.2,55.1,29.95,NNW,329,1.0,6.0,37,0.00,CLR,,0.00,548.0,WeatherDisplay:10.37,2013-07-22 14:15:00,
2013-07-22 16:20:00,84.4,55.3,29.95,NNW,335,0.7,3.5,37,0.00,CLR,,0.00,548.0,WeatherDisplay:10.37,2013-07-22 14:20:00,
2013-07-22 16:25:00,84.2,55.1,29.95,North,357,5.0,9.0,37,0.00,CLR,,0.00,548.0,WeatherDisplay:10.37,2013-07-22 14:25:00,
2013-07-22 16:30:00,84.0,54.2,29.95,NW,316,3.5,9.2,36,0.00,FEW,,0.00,517.0,WeatherDisplay:10.37,2013-07-22 14:30:00,
2013-07-22 16:35:00,84.0,54.2,29.95,NW,325,5.0,10.0,36,0.00,FEW,,0.00,503.0,WeatherDisplay:10.37,2013-07-22 14:35:00,
2013-07-22 16:40:00,84.7,54.8,29.95,NNW,345,3.8,5.8,36,0.00,CLR,,0.00,490.0,WeatherDisplay:10.37,2013-07-22 14:40:00,
2013-07-22 16:45:00,85.1,54.4,29.94,WNW,285,3.7,7.0,35,0.00,CLR,,0.00,478.0,WeatherDisplay:10.37,2013-07-22 14:45:00,
2013-07-22 16:50:00,84.8,54.1,29.94,NW,306,2.1,6.0,35,0.00,CLR,,0.00,468.0,WeatherDisplay:10.37,2013-07-22 14:50:00,
2013-07-22 16:55:00,84.6,53.9,29.94,NW,307,3.0,7.0,35,0.00,CLR,,0.00,452.0,WeatherDisplay:10.37,2013-07-22 14:55:00,
2013-07-22 17:00:00,84.6,53.9,29.94,NNW,348,3.8,9.2,35,0.00,CLR,,0.00,443.0,WeatherDisplay:10.37,2013-07-22 15:00:00,
2013-07-22 17:05:00,84.3,52.9,29.94,NNW,343,4.4,9.2,34,0.00,CLR,,0.00,432.0,WeatherDisplay:10.37,2013-07-22 15:05:00,
2013-07-22 17:10:00,84.4,53.8,29.94,NNW,336,3.5,8.0,35,0.00,CLR,,0.00,420.0,WeatherDisplay:10.37,2013-07-22 15:10:00,
2013-07-22 17:15:00,84.5,53.0,29.94,WNW,294,4.3,7.0,34,0.00,CLR,,0.00,408.0,WeatherDisplay:10.37,2013-07-22 15:15:00,
2013-07-22 17:20:00,84.6,53.9,29.94,NW,319,4.0,8.1,35,0.00,CLR,,0.00,396.0,WeatherDisplay:10.37,2013-07-22 15:20:00,
2013-07-22 17:25:00,84.5,53.0,29.94,WNW,295,1.2,5.8,34,0.00,CLR,,0.00,383.0,WeatherDisplay:10.37,2013-07-22 15:25:00,
2013-07-22 17:30:00,84.6,53.9,29.94,NNW,332,2.1,6.9,35,0.00,CLR,,0.00,373.0,WeatherDisplay:10.37,2013-07-22 15:30:00,
2013-07-22 17:35:00,84.8,53.3,29.94,NW,317,3.3,5.0,34,0.00,CLR,,0.00,362.0,WeatherDisplay:10.37,2013-07-22 15:35:00,
2013-07-22 17:40:00,84.8,52.5,29.94,NW,326,3.5,8.1,33,0.00,CLR,,0.00,350.0,WeatherDisplay:10.37,2013-07-22 15:40:00,
2013-07-22 17:45:00,84.5,52.2,29.93,NNW,336,2.8,6.0,33,0.00,CLR,,0.00,336.0,WeatherDisplay:10.37,2013-07-22 15:45:00,
2013-07-22 17:50:00,84.3,52.9,29.93,NNW,340,2.6,8.0,34,0.00,CLR,,0.00,323.0,WeatherDisplay:10.37,2013-07-22 15:50:00,
2013-07-22 17:55:00,84.4,53.0,29.93,NNW,342,4.7,8.1,34,0.00,CLR,,0.00,311.0,WeatherDisplay:10.37,2013-07-22 15:55:00,
2013-07-22 18:00:00,84.3,52.1,29.93,NNW,338,4.6,7.0,33,0.00,CLR,,0.00,299.0,WeatherDisplay:10.37,2013-07-22 16:00:00,
2013-07-22 18:05:00,84.1,51.9,29.93,NNW,333,5.0,11.5,33,0.00,CLR,,0.00,287.0,WeatherDisplay:10.37,2013-07-22 16:05:00,
2013-07-22 18:10:00,84.1,51.9,29.93,NNW,339,5.0,6.0,33,0.00,CLR,,0.00,278.0,WeatherDisplay:10.37,2013-07-22 16:10:00,
2013-07-22 18:15:00,84.2,52.8,29.93,NNW,336,2.0,8.0,34,0.00,CLR,,0.00,264.0,WeatherDisplay:10.37,2013-07-22 16:15:00,
2013-07-22 18:20:00,84.3,52.1,29.93,NNW,347,4.3,5.0,33,0.00,CLR,,0.00,250.0,WeatherDisplay:10.37,2013-07-22 16:20:00,
2013-07-22 18:25:00,84.1,53.5,29.93,NW,304,3.4,5.0,35,0.00,CLR,,0.00,237.0,WeatherDisplay:10.37,2013-07-22 16:25:00,
2013-07-22 18:30:00,84.0,53.4,29.93,NNW,328,3.1,7.0,35,0.00,CLR,,0.00,227.0,WeatherDisplay:10.37,2013-07-22 16:30:00,
2013-07-22 18:35:00,83.7,54.7,29.92,West,270,1.3,4.6,37,0.00,CLR,,0.00,213.0,WeatherDisplay:10.37,2013-07-22 16:35:00,
2013-07-22 18:40:00,83.5,52.2,29.92,NW,310,2.6,6.9,34,0.00,CLR,,0.00,202.0,WeatherDisplay:10.37,2013-07-22 16:40:00,
2013-07-22 18:45:00,83.3,52.0,29.92,WNW,303,2.2,4.0,34,0.00,CLR,,0.00,190.0,WeatherDisplay:10.37,2013-07-22 16:45:00,
2013-07-22 18:50:00,83.2,52.7,29.92,NW,317,3.0,6.0,35,0.00,CLR,,0.00,178.0,WeatherDisplay:10.37,2013-07-22 16:50:00,
2013-07-22 18:55:00,83.1,52.6,29.92,NW,307,1.9,4.0,35,0.00,CLR,,0.00,163.0,WeatherDisplay:10.37,2013-07-22 16:55:00,
2013-07-22 19:00:00,82.9,52.4,29.92,NW,325,2.3,5.8,35,0.00,CLR,,0.00,151.0,WeatherDisplay:10.37,2013-07-22 17:00:00,
2013-07-22 19:05:00,82.6,52.2,29.92,NW,311,3.0,7.0,35,0.00,CLR,,0.00,137.0,WeatherDisplay:10.37,2013-07-22 17:05:00,
2013-07-22 19:10:00,82.2,52.6,29.92,WNW,293,0.2,2.3,36,0.00,CLR,,0.00,123.0,WeatherDisplay:10.37,2013-07-22 17:10:00,
2013-07-22 19:15:00,82.0,52.4,29.92,NW,306,3.5,9.2,36,0.00,CLR,,0.00,113.0,WeatherDisplay:10.37,2013-07-22 17:15:00,
2013-07-22 19:20:00,81.9,52.3,29.92,WNW,282,0.6,4.6,36,0.00,CLR,,0.00,100.0,WeatherDisplay:10.37,2013-07-22 17:20:00,
2013-07-22 19:25:00,81.7,52.9,29.92,WNW,296,2.6,6.0,37,0.00,FEW,,0.00,88.0,WeatherDisplay:10.37,2013-07-22 17:25:00,
2013-07-22 19:30:00,81.4,52.6,29.92,WNW,287,2.7,5.0,37,0.00,FEW,,0.00,76.0,WeatherDisplay:10.37,2013-07-22 17:30:00,
2013-07-22 19:35:00,81.2,52.4,29.92,NW,308,0.6,3.5,37,0.00,FEW,,0.00,65.0,WeatherDisplay:10.37,2013-07-22 17:35:00,
2013-07-22 19:40:00,81.0,53.0,29.92,WNW,301,1.5,3.5,38,0.00,FEW,,0.00,54.0,WeatherDisplay:10.37,2013-07-22 17:40:00,
2013-07-22 19:45:00,80.8,52.8,29.92,WNW,301,0.5,2.3,38,0.00,FEW,,0.00,21.0,WeatherDisplay:10.37,2013-07-22 17:45:00,
2013-07-22 19:50:00,80.7,52.7,29.92,NW,320,0.5,2.3,38,0.00,FEW,,0.00,21.0,WeatherDisplay:10.37,2013-07-22 17:50:00,
2013-07-22 19:55:00,80.5,53.3,29.91,NW,316,0.6,3.5,39,0.00,FEW,,0.00,18.0,WeatherDisplay:10.37,2013-07-22 17:55:00,
2013-07-22 20:00:00,80.3,53.1,29.92,WNW,298,0.4,3.5,39,0.00,FEW,,0.00,16.0,WeatherDisplay:10.37,2013-07-22 18:00:00,
2013-07-22 20:06:00,80.0,53.5,29.91,WNW,291,1.1,3.5,40,0.00,FEW,,0.00,14.0,WeatherDisplay:10.37,2013-07-22 18:06:00,
2013-07-22 20:12:00,79.7,53.9,29.91,WNW,291,0.2,2.3,41,0.00,FEW,,0.00,11.0,WeatherDisplay:10.37,2013-07-22 18:12:00,
2013-07-22 20:17:00,79.5,53.7,29.91,WNW,292,0.7,3.5,41,0.00,FEW,,0.00,9.0,WeatherDisplay:10.37,2013-07-22 18:17:00,
2013-07-22 20:22:00,79.2,54.1,29.91,WNW,292,0.0,1.2,42,0.00,FEW,,0.00,7.0,WeatherDisplay:10.37,2013-07-22 18:22:00,
2013-07-22 20:27:00,78.8,54.4,29.91,WNW,292,0.0,1.2,43,0.00,FEW,,0.00,5.0,WeatherDisplay:10.37,2013-07-22 18:27:00,
2013-07-22 20:33:00,78.4,54.0,29.92,WNW,292,0.1,1.2,43,0.00,FEW,,0.00,0.0,WeatherDisplay:10.37,2013-07-22 18:33:00,
2013-07-22 20:40:00,77.7,54.0,29.92,WNW,292,0.0,1.2,44,0.00,FEW,,0.00,0.0,WeatherDisplay:10.37,2013-07-22 18:40:00,
2013-07-22 20:45:00,77.3,54.9,29.92,WNW,292,0.0,0.0,46,0.00,FEW,,0.00,0.0,WeatherDisplay:10.37,2013-07-22 18:45:00,
2013-07-22 20:50:00,76.7,55.0,29.92,WNW,291,0.0,0.0,47,0.00,FEW,,0.00,0.0,WeatherDisplay:10.37,2013-07-22 18:50:00,
2013-07-22 20:55:00,76.2,55.1,29.92,WNW,291,0.0,0.0,48,0.00,FEW,,0.00,0.0,WeatherDisplay:10.37,2013-07-22 18:55:00,
2013-07-22 21:00:00,75.7,55.2,29.92,WNW,292,0.0,0.0,49,0.00,FEW,,0.00,0.0,WeatherDisplay:10.37,2013-07-22 19:00:00,
2013-07-22 21:05:00,75.0,55.1,29.92,WNW,292,0.0,0.0,50,0.00,FEW,,0.00,0.0,WeatherDisplay:10.37,2013-07-22 19:05:00,
2013-07-22 21:10:00,74.4,55.1,29.92,WNW,292,0.0,0.0,51,0.00,FEW,,0.00,0.0,WeatherDisplay:10.37,2013-07-22 19:10:00,
2013-07-22 21:15:00,73.7,55.5,29.92,WNW,291,0.0,0.0,53,0.00,FEW,,0.00,0.0,WeatherDisplay:10.37,2013-07-22 19:15:00,
2013-07-22 21:20:00,73.1,55.5,29.92,WNW,292,0.0,0.0,54,0.00,FEW,,0.00,0.0,WeatherDisplay:10.37,2013-07-22 19:20:00,
2013-07-22 21:26:00,72.2,55.1,29.92,WNW,292,0.0,1.2,55,0.00,FEW,,0.00,0.0,WeatherDisplay:10.37,2013-07-22 19:26:00,
2013-07-22 21:31:00,71.7,55.2,29.92,WNW,292,0.0,0.0,56,0.00,FEW,,0.00,0.0,WeatherDisplay:10.37,2013-07-22 19:31:00,
2013-07-22 21:36:00,71.2,55.7,29.92,WNW,292,0.0,0.0,58,0.00,FEW,,0.00,0.0,WeatherDisplay:10.37,2013-07-22 19:36:00,
2013-07-22 21:41:00,70.8,55.8,29.92,WNW,291,0.0,0.0,59,0.00,FEW,,0.00,0.0,WeatherDisplay:10.37,2013-07-22 19:41:00,
2013-07-22 21:46:00,70.3,55.8,29.92,WNW,292,0.0,0.0,60,0.00,FEW,,0.00,0.0,WeatherDisplay:10.37,2013-07-22 19:46:00,
2013-07-22 21:51:00,69.9,55.8,29.92,WNW,292,0.0,0.0,61,0.00,FEW,,0.00,0.0,WeatherDisplay:10.37,2013-07-22 19:51:00,
2013-07-22 21:56:00,69.4,55.8,29.92,WNW,292,0.0,0.0,62,0.00,FEW,,0.00,0.0,WeatherDisplay:10.37,2013-07-22 19:56:00,
2013-07-22 22:01:00,69.1,56.0,29.92,WNW,292,0.0,0.0,63,0.00,FEW,,0.00,0.0,WeatherDisplay:10.37,2013-07-22 20:01:00,
2013-07-22 22:06:00,68.7,55.6,29.92,WNW,292,0.0,0.0,63,0.00,FEW,,0.00,0.0,WeatherDisplay:10.37,2013-07-22 20:06:00,
2013-07-22 22:11:00,68.3,55.6,29.92,WNW,292,0.0,0.0,64,0.00,FEW,,0.00,0.0,WeatherDisplay:10.37,2013-07-22 20:11:00,
2013-07-22 22:16:00,67.9,55.7,29.92,WNW,292,0.0,0.0,65,0.00,FEW,,0.00,0.0,WeatherDisplay:10.37,2013-07-22 20:16:00,
2013-07-22 22:17:00,67.8,55.6,29.92,WNW,292,0.0,0.0,65,0.00,FEW,,0.00,0.0,WeatherDisplay:10.37,2013-07-22 20:17:00,
2013-07-22 22:18:00,67.8,55.6,29.92,WNW,292,0.0,0.0,65,0.00,FEW,,0.00,0.0,WeatherDisplay:10.37,2013-07-22 20:18:00,
2013-07-22 22:20:00,67.7,55.5,29.92,WNW,292,0.0,0.0,65,0.00,FEW,,0.00,0.0,WeatherDisplay:10.37,2013-07-22 20:20:00,
2013-07-22 22:26:00,67.2,55.5,29.92,WNW,291,0.0,1.2,66,0.00,FEW,,0.00,0.0,WeatherDisplay:10.37,2013-07-22 20:26:00,
2013-07-22 22:31:00,66.9,55.6,29.92,WNW,291,0.0,0.0,67,0.00,FEW,,0.00,0.0,WeatherDisplay:10.37,2013-07-22 20:31:00,
2013-07-22 22:36:00,66.7,55.4,29.92,WNW,292,0.0,0.0,67,0.00,FEW,,0.00,0.0,WeatherDisplay:10.37,2013-07-22 20:36:00,
2013-07-22 22:41:00,66.4,55.5,29.92,WNW,292,0.0,0.0,68,0.00,FEW,,0.00,0.0,WeatherDisplay:10.37,2013-07-22 20:41:00,
2013-07-22 22:46:00,66.2,55.3,29.92,WNW,291,0.0,0.0,68,0.00,FEW,,0.00,0.0,WeatherDisplay:10.37,2013-07-22 20:46:00,
2013-07-22 22:49:00,66.1,55.2,29.92,WNW,292,0.0,0.0,68,0.00,FEW,,0.00,0.0,WeatherDisplay:10.37,2013-07-22 20:49:00,
2013-07-22 22:54:00,65.8,55.3,29.92,WNW,292,0.0,0.0,69,0.00,FEW,,0.00,0.0,WeatherDisplay:10.37,2013-07-22 20:54:00,
2013-07-22 22:59:00,65.6,55.2,29.91,WNW,292,0.0,0.0,69,0.00,FEW,,0.00,0.0,WeatherDisplay:10.37,2013-07-22 20:59:00,
2013-07-22 23:04:00,65.4,55.0,29.91,WNW,291,0.0,0.0,69,0.00,FEW,,0.00,0.0,WeatherDisplay:10.37,2013-07-22 21:04:00,
2013-07-22 23:09:00,65.2,55.2,29.92,WNW,292,0.0,0.0,70,0.00,FEW,,0.00,0.0,WeatherDisplay:10.37,2013-07-22 21:09:00,
2013-07-22 23:14:00,65.0,55.0,29.92,WNW,291,0.0,0.0,70,0.00,FEW,,0.00,0.0,WeatherDisplay:10.37,2013-07-22 21:14:00,
2013-07-22 23:19:00,64.8,54.8,29.91,WNW,292,0.0,0.0,70,0.00,FEW,,0.00,0.0,WeatherDisplay:10.37,2013-07-22 21:19:00,
2013-07-22 23:24:00,64.6,55.0,29.91,WNW,292,0.0,0.0,71,0.00,FEW,,0.00,0.0,WeatherDisplay:10.37,2013-07-22 21:24:00,
2013-07-22 23:29:00,64.5,54.9,29.91,WNW,292,0.0,0.0,71,0.00,FEW,,0.00,0.0,WeatherDisplay:10.37,2013-07-22 21:29:00,
2013-07-22 23:34:00,64.3,54.7,29.91,WNW,292,0.0,0.0,71,0.00,FEW,,0.00,0.0,WeatherDisplay:10.37,2013-07-22 21:34:00,
2013-07-22 23:40:00,64.1,54.9,29.91,WNW,292,0.0,0.0,72,0.00,FEW,,0.00,0.0,WeatherDisplay:10.37,2013-07-22 21:40:00,
2013-07-22 23:45:00,64.0,54.8,29.91,WNW,292,0.0,0.0,72,0.00,FEW,,0.00,0.0,WeatherDisplay:10.37,2013-07-22 21:45:00,
2013-07-22 23:50:00,63.8,54.6,29.91,WNW,292,0.0,0.0,72,0.00,FEW,,0.00,0.0,WeatherDisplay:10.37,2013-07-22 21:50:00,
2013-07-22 23:55:00,63.7,54.9,29.91,WNW,292,0.0,0.0,73,0.00,FEW,,0.00,0.0,WeatherDisplay:10.37,2013-07-22 21:55:00,